Time;durP1;ratioP1;P1;durP2;ratioP2;P2;SDS_P1;SDS_P2;PMS_P1;PMS_P2;Temp;Humidity;BMP_temperature;BMP_pressure;BME280_temperature;BME280_humidity;BME280_pressure;Samples;Min_cycle;Max_cycle;Signal;HPM_P1;HPM_P2
2022/10/18 00:01:06;;;;;;;12.40;1.73;;;;;;;20.62;99.66;99088.25;6206164;23;20016;-87
2022/10/18 00:03:33;;;;;;;12.88;1.83;;;;;;;20.56;98.80;99091.19;6235945;23;20019;-88
2022/10/18 00:05:58;;;;;;;12.05;1.52;;;;;;;20.71;98.52;99093.19;6209714;23;20022;-87
2022/10/18 00:08:24;;;;;;;15.60;1.50;;;;;;;21.37;98.74;99088.38;6207905;23;20078;-87
2022/10/18 00:10:50;;;;;;;11.02;1.80;;;;;;;21.27;96.26;99093.28;6208735;23;20000;-87
2022/10/18 00:13:16;;;;;;;14.13;2.08;;;;;;;21.22;98.05;99103.22;6235642;23;20342;-87
2022/10/18 00:15:50;;;;;;;7.40;1.27;;;;;;;;;;6208824;23;20456;-87
2022/10/18 00:18:15;;;;;;;8.90;1.10;;;;;;;22.04;91.46;99124.03;6208360;23;20022;-87
2022/10/18 00:20:41;;;;;;;12.15;1.48;;;;;;;22.46;91.58;99124.59;6235200;23;19996;-87
2022/10/18 00:23:06;;;;;;;11.52;1.77;;;;;;;23.72;87.38;99127.53;6234326;23;20016;-87
2022/10/18 00:25:32;;;;;;;9.57;1.20;;;;;;;24.12;82.26;99124.38;6235002;23;20338;-87
2022/10/18 00:27:57;;;;;;;13.15;1.50;;;;;;;25.51;76.17;99129.22;6236099;23;20455;-87
2022/10/18 00:30:24;;;;;;;11.73;1.58;;;;;;;25.45;75.15;99130.47;6234730;23;20004;-87
2022/10/18 00:32:49;;;;;;;10.45;1.42;;;;;;;23.84;81.14;99137.47;6208108;23;20641;-88
2022/10/18 00:35:15;;;;;;;10.77;1.27;;;;;;;23.45;81.04;99132.63;6236829;23;20011;-88
2022/10/18 00:37:40;;;;;;;11.45;1.58;;;;;;;22.76;83.36;99140.75;6235707;23;20028;-88
2022/10/18 00:40:06;;;;;;;8.25;1.50;;;;;;;21.70;88.67;99141.66;6207580;23;20004;-88
2022/10/18 00:42:34;;;;;;;10.20;1.42;;;;;;;22.01;89.88;99134.81;6235932;23;20023;-87
2022/10/18 00:45:11;;;;;;;10.93;1.50;;;;;;;22.34;87.98;99144.72;6208946;23;20503;-87
2022/10/18 00:47:37;;;;;;;13.85;1.50;;;;;;;22.74;86.57;99155.06;6209715;23;20119;-88
2022/10/18 00:50:04;;;;;;;9.10;1.25;;;;;;;24.36;78.55;99160.22;6209267;23;20086;-88
2022/10/18 00:52:38;;;;;;;9.90;1.15;;;;;;;23.16;80.36;99165.22;6237912;23;20016;-88
2022/10/18 00:55:05;;;;;;;12.80;1.40;;;;;;;23.44;79.59;99170.84;6236643;23;20008;-88
2022/10/18 00:57:32;;;;;;;7.30;1.20;;;;;;;23.71;78.47;99168.41;6209980;23;20424;-87
2022/10/18 00:59:58;;;;;;;7.35;1.35;;;;;;;23.06;80.02;99168.44;6236755;23;20338;-88
2022/10/18 01:02:25;;;;;;;7.18;1.27;;;;;;;22.71;81.19;99165.84;6237266;23;20023;-88
2022/10/18 01:04:50;;;;;;;14.38;1.58;;;;;;;22.41;83.03;99172.69;6236729;23;20023;-88
2022/10/18 01:07:54;;;;;;;11.20;1.35;;;;;;;23.10;81.08;99176.16;6209449;23;20008;-87
2022/10/18 01:10:19;;;;;;;21.27;1.90;;;;;;;23.49;78.23;99168.75;6239094;23;20663;-87
2022/10/18 01:13:16;;;;;;;7.55;1.30;;;;;;;23.01;79.68;99166.03;6237730;23;20042;-88
2022/10/18 01:16:06;;;;;;;10.07;1.83;;;;;;;22.39;83.17;99165.72;6237701;23;20334;-87
2022/10/18 01:18:59;;;;;;;6.22;1.20;;;;;;;22.91;84.19;99157.69;6235935;23;20061;-87
2022/10/18 01:21:34;;;;;;;9.05;1.27;;;;;;;23.15;83.08;99157.34;6209417;23;20050;-87
2022/10/18 01:24:18;;;;;;;11.98;1.73;;;;;;;22.14;86.12;99154.53;6238518;23;20011;-87
2022/10/18 01:27:02;;;;;;;;;;;;;;;21.61;89.22;99163.31;6236086;23;20099;-87
2022/10/18 01:29:36;;;;;;;12.65;1.50;;;;;;;22.14;89.96;99169.59;6236031;23;19978;-87
2022/10/18 01:32:08;;;;;;;11.07;1.52;;;;;;;23.21;85.26;99183.59;6236076;23;20008;-87
2022/10/18 01:34:37;;;;;;;8.43;1.40;;;;;;;22.95;84.12;99177.84;6234702;23;20026;-87
2022/10/18 01:37:08;;;;;;;7.07;1.23;;;;;;;23.67;82.13;99177.53;6236973;23;20011;-86
2022/10/18 01:39:37;;;;;;;10.18;1.60;;;;;;;22.50;86.79;99182.84;6208968;23;20207;-86
2022/10/18 01:42:09;;;;;;;12.95;1.48;;;;;;;22.98;84.95;99176.84;6211383;23;20015;-87
2022/10/18 01:44:36;;;;;;;11.73;1.38;;;;;;;21.93;90.57;99179.47;6210507;23;20020;-88
2022/10/18 01:47:04;;;;;;;10.88;2.13;;;;;;;21.99;89.34;99173.88;6211485;23;20026;-87
2022/10/18 01:49:29;;;;;;;12.13;1.60;;;;;;;22.29;90.83;99165.31;6209893;23;20103;-88
2022/10/18 01:51:54;;;;;;;10.82;1.60;;;;;;;23.29;87.54;99168.06;6209852;23;20085;-87
2022/10/18 01:54:29;;;;;;;11.25;1.27;;;;;;;20.37;99.38;99175.91;6209653;23;20045;-87
2022/10/18 01:57:21;;;;;;;12.57;1.50;;;;;;;21.57;95.57;99167.94;6235458;23;20015;-87
2022/10/18 02:00:09;;;;;;;9.32;1.52;;;;;;;22.13;92.91;99167.88;6223726;23;20489;-87
2022/10/18 02:02:34;;;;;;;15.63;1.42;;;;;;;23.46;87.51;99175.13;6241056;22;20031;-95
2022/10/18 02:05:10;;;;;;;8.65;1.40;;;;;;;22.66;89.24;99179.41;6217561;23;20011;-95
2022/10/18 02:07:38;;;;;;;16.98;1.90;;;;;;;23.71;87.14;99187.06;6219868;23;20016;-95
2022/10/18 02:10:17;;;;;;;11.80;1.38;;;;;;;24.46;83.03;99200.53;6220670;23;20008;-94
2022/10/18 02:12:45;;;;;;;11.52;1.80;;;;;;;25.13;81.20;99202.75;6222654;23;20027;-95
2022/10/18 02:15:15;;;;;;;9.82;1.73;;;;;;;25.05;77.33;99203.25;6219972;23;20444;-95
2022/10/18 02:17:45;;;;;;;11.40;1.17;;;;;;;24.97;76.24;99186.84;6218582;23;20019;-96
2022/10/18 02:20:13;;;;;;;8.43;1.38;;;;;;;24.71;78.18;99191.09;6219501;23;20449;-94
2022/10/18 02:22:41;;;;;;;10.43;1.45;;;;;;;25.27;76.11;99191.19;6220800;23;20000;-95
2022/10/18 02:25:12;;;;;;;11.02;1.50;;;;;;;24.74;76.58;99196.25;6219925;23;20016;-95
2022/10/18 02:27:39;;;;;;;11.57;1.60;;;;;;;25.39;74.29;99211.81;6220048;23;20016;-95
2022/10/18 02:30:05;;;;;;;12.73;1.63;;;;;;;24.34;78.50;99212.78;6219668;23;20015;-94
2022/10/18 02:32:37;;;;;;;12.27;1.67;;;;;;;23.17;85.22;99209.53;6220143;23;20192;-95
2022/10/18 02:35:08;;;;;;;8.98;1.15;;;;;;;22.47;88.49;99208.72;6221077;23;20423;-95
2022/10/18 02:37:38;;;;;;;9.90;1.60;;;;;;;23.92;81.89;99200.13;6220776;23;20019;-95
2022/10/18 02:40:06;;;;;;;13.18;1.98;;;;;;;24.77;77.58;99216.53;6220454;23;20005;-95
2022/10/18 02:42:37;;;;;;;10.70;1.67;;;;;;;22.97;82.76;99212.34;6219664;23;19996;-96
2022/10/18 02:45:04;;;;;;;10.80;1.63;;;;;;;22.48;84.58;99232.56;6220951;23;20016;-96
2022/10/18 02:47:30;;;;;;;11.07;1.50;;;;;;;21.56;90.65;99229.03;6219016;23;20031;-95
2022/10/18 02:49:55;;;;;;;10.20;1.20;;;;;;;22.47;88.55;99225.50;6219639;23;20442;-96
2022/10/18 02:52:21;;;;;;;10.40;1.42;;;;;;;21.87;90.87;99219.63;6220275;23;20050;-96
2022/10/18 02:54:46;;;;;;;10.73;1.30;;;;;;;22.13;89.89;99221.88;6219734;23;19999;-94
2022/10/18 02:57:11;;;;;;;9.40;1.35;;;;;;;22.10;89.34;99211.41;6218913;23;20004;-95
2022/10/18 02:59:37;;;;;;;9.50;1.17;;;;;;;21.86;89.99;99221.41;6217906;23;20036;-96
2022/10/18 03:02:12;;;;;;;11.00;1.63;;;;;;;22.04;91.29;99219.66;6198745;23;20012;-95
2022/10/18 03:04:38;;;;;;;9.55;1.67;;;;;;;21.95;92.62;99223.63;6186583;23;20051;-95
2022/10/18 03:07:03;;;;;;;8.73;1.42;;;;;;;21.28;94.80;99223.19;6187649;23;20008;-95
2022/10/18 03:09:29;;;;;;;10.77;1.40;;;;;;;21.30;94.81;99217.81;6188969;23;20013;-94
2022/10/18 03:11:54;;;;;;;13.05;1.80;;;;;;;23.44;86.79;99216.09;6187803;23;20277;-95
2022/10/18 03:14:20;;;;;;;10.18;1.40;;;;;;;22.12;89.73;99220.13;6188574;23;20056;-95
2022/10/18 03:16:45;;;;;;;11.38;1.52;;;;;;;21.98;91.25;99212.84;6188241;23;20501;-93
2022/10/18 03:19:10;;;;;;;9.18;1.45;;;;;;;22.08;88.81;99217.72;6188467;23;20031;-94
2022/10/18 03:21:36;;;;;;;12.48;1.30;;;;;;;23.96;82.40;99228.31;6188352;23;20023;-95
2022/10/18 03:24:06;;;;;;;9.13;1.23;;;;;;;21.38;91.19;99236.88;6188144;23;20057;-95
2022/10/18 03:26:31;;;;;;;13.45;1.77;;;;;;;21.40;95.64;99239.47;6186347;23;20028;-94
2022/10/18 03:28:56;;;;;;;9.20;1.55;;;;;;;21.52;92.06;99235.38;6187700;23;20024;-94
2022/10/18 03:31:22;;;;;;;13.10;1.92;;;;;;;22.32;90.89;99236.88;6187033;23;20016;-94
2022/10/18 03:33:47;;;;;;;9.75;1.48;;;;;;;22.68;89.06;99241.31;6186038;23;20019;-94
2022/10/18 03:36:14;;;;;;;10.43;1.45;;;;;;;22.06;91.19;99249.66;6186957;23;20004;-94
2022/10/18 03:38:39;;;;;;;11.30;1.98;;;;;;;24.93;82.46;99254.69;6187881;23;20001;-94
2022/10/18 03:41:05;;;;;;;11.65;1.40;;;;;;;23.18;84.34;99258.25;6187759;23;20141;-94
2022/10/18 03:43:30;;;;;;;11.30;1.10;;;;;;;23.06;85.01;99257.09;6215655;23;20031;-95
2022/10/18 03:45:56;;;;;;;12.43;2.00;;;;;;;22.60;88.25;99249.69;6188011;23;20020;-95
2022/10/18 03:48:21;;;;;;;12.20;1.55;;;;;;;22.32;87.02;99258.13;6188652;23;20149;-95
2022/10/18 03:50:47;;;;;;;12.95;1.92;;;;;;;22.73;86.81;99259.69;6186973;23;20520;-94
2022/10/18 03:53:12;;;;;;;13.18;2.22;;;;;;;22.22;87.51;99265.69;6187227;23;20009;-94
2022/10/18 03:55:38;;;;;;;13.57;2.13;;;;;;;22.54;89.73;99273.06;6187872;23;20004;-93
2022/10/18 03:58:04;;;;;;;12.05;1.67;;;;;;;22.45;86.42;99277.03;6189680;23;20015;-95
2022/10/18 04:00:29;;;;;;;14.40;1.90;;;;;;;23.67;83.52;99294.69;6187269;23;20004;-95
2022/10/18 04:02:55;;;;;;;11.18;2.13;;;;;;;23.28;82.54;99293.22;6242510;23;20008;-95
2022/10/18 04:05:22;;;;;;;11.63;1.42;;;;;;;23.48;82.82;99285.03;6242544;23;20015;-95
2022/10/18 04:07:48;;;;;;;10.73;1.60;;;;;;;23.78;81.57;99268.31;6242642;23;20066;-95
2022/10/18 04:10:13;;;;;;;10.05;1.45;;;;;;;22.62;85.76;99268.22;6242839;23;20043;-94
2022/10/18 04:12:39;;;;;;;9.15;1.55;;;;;;;22.76;85.12;99270.19;6243985;23;20081;-94
2022/10/18 04:15:05;;;;;;;8.73;1.52;;;;;;;22.32;88.10;99266.09;6243481;23;20011;-96
2022/10/18 04:17:30;;;;;;;16.63;1.85;;;;;;;22.63;86.61;99262.81;6243252;23;20554;-93
2022/10/18 04:19:56;;;;;;;8.27;1.50;;;;;;;21.86;88.56;99274.50;6243197;23;20046;-94
2022/10/18 04:22:21;;;;;;;13.45;1.50;;;;;;;22.46;88.27;99273.44;6242531;23;20027;-94
2022/10/18 04:24:48;;;;;;;9.60;1.73;;;;;;;22.25;89.53;99281.47;6242597;23;20008;-95
2022/10/18 04:27:13;;;;;;;13.25;1.58;;;;;;;22.14;90.58;99282.03;6241016;23;20395;-95
2022/10/18 04:29:39;;;;;;;11.63;1.67;;;;;;;21.41;93.02;99288.97;6241958;23;20008;-94
2022/10/18 04:32:04;;;;;;;12.38;1.70;;;;;;;21.81;92.36;99282.69;6242744;23;20392;-95
2022/10/18 04:34:30;;;;;;;8.18;1.38;;;;;;;22.11;92.88;99294.59;6243260;23;20441;-95
2022/10/18 04:36:55;;;;;;;16.02;1.83;;;;;;;22.33;89.44;99289.97;6243035;23;20020;-94
2022/10/18 04:39:20;;;;;;;11.10;1.35;;;;;;;22.53;89.80;99293.44;6242272;23;20022;-94
2022/10/18 04:41:47;;;;;;;11.07;1.77;;;;;;;23.14;87.48;99288.63;6243474;23;20465;-95
2022/10/18 04:44:12;;;;;;;10.65;1.50;;;;;;;20.95;94.08;99286.53;6242864;23;20070;-95
2022/10/18 04:46:38;;;;;;;7.75;1.60;;;;;;;21.32;94.20;99287.56;6243289;23;20414;-94
2022/10/18 04:49:03;;;;;;;11.73;1.25;;;;;;;22.28;91.87;99280.47;6242592;23;20449;-94
2022/10/18 04:51:29;;;;;;;10.95;1.70;;;;;;;22.39;92.23;99285.31;6242735;23;20109;-95
2022/10/18 04:53:55;;;;;;;8.27;1.35;;;;;;;22.01;92.02;99280.88;6241886;23;20016;-94
2022/10/18 04:56:20;;;;;;;7.57;1.17;;;;;;;21.87;92.92;99283.34;6242734;23;20008;-95
2022/10/18 04:58:55;;;;;;;7.93;1.33;;;;;;;20.67;97.69;99294.75;6240307;23;20035;-95
2022/10/18 05:01:20;;;;;;;12.55;1.70;;;;;;;21.59;97.23;99288.13;6242160;23;20016;-94
2022/10/18 05:03:50;;;;;;;10.98;1.75;;;;;;;21.19;97.01;99281.09;6243372;23;20047;-95
2022/10/18 05:06:15;;;;;;;11.55;1.60;;;;;;;21.88;96.52;99290.34;6242606;23;20058;-95
2022/10/18 05:08:40;;;;;;;12.27;1.50;;;;;;;21.21;100.00;99293.38;6241626;23;20020;-94
2022/10/18 05:11:06;;;;;;;13.27;1.65;;;;;;;22.90;94.27;99291.59;6241941;23;20009;-95
2022/10/18 05:13:31;;;;;;;8.93;1.33;;;;;;;23.24;91.23;99292.53;6243111;23;20000;-95
2022/10/18 05:15:59;;;;;;;7.65;1.33;;;;;;;22.66;93.62;99301.69;6242761;23;20609;-95
2022/10/18 05:18:24;;;;;;;13.90;2.03;;;;;;;21.38;97.51;99307.63;6243204;23;20050;-95
2022/10/18 05:20:49;;;;;;;11.60;1.48;;;;;;;21.79;97.05;99318.22;6243177;23;20008;-94
2022/10/18 05:23:15;;;;;;;10.52;1.70;;;;;;;22.99;92.27;99311.53;6243389;23;20514;-95
2022/10/18 05:25:41;;;;;;;10.55;1.83;;;;;;;22.94;92.85;99316.25;6242334;23;20433;-94
2022/10/18 05:28:07;;;;;;;11.38;1.52;;;;;;;23.06;89.89;99318.28;6241964;23;20090;-94
2022/10/18 05:30:32;;;;;;;12.75;1.45;;;;;;;22.92;89.60;99318.13;6243453;23;20039;-95
2022/10/18 05:32:58;;;;;;;8.98;1.27;;;;;;;23.26;88.75;99327.06;6248851;22;20494;-95
2022/10/18 05:35:24;;;;;;;9.52;1.40;;;;;;;23.28;90.05;99334.00;6250194;22;20000;-95
2022/10/18 05:37:49;;;;;;;12.05;1.52;;;;;;;23.06;89.48;99333.38;6249033;22;20086;-95
2022/10/18 05:40:14;;;;;;;10.27;1.55;;;;;;;23.81;84.81;99340.09;6249089;22;20007;-96
2022/10/18 05:42:40;;;;;;;9.48;1.42;;;;;;;22.82;87.23;99341.66;6249451;22;20034;-95
2022/10/18 05:45:06;;;;;;;9.35;1.67;;;;;;;22.52;90.05;99334.28;6250639;22;20006;-95
2022/10/18 05:47:31;;;;;;;14.25;1.88;;;;;;;21.56;92.29;99328.09;6249376;22;20007;-95
2022/10/18 05:49:57;;;;;;;25.67;2.40;;;;;;;22.32;90.72;99325.44;6249798;22;20723;-95
2022/10/18 05:52:22;;;;;;;11.05;1.95;;;;;;;21.81;90.63;99335.81;6248510;22;20105;-94
2022/10/18 05:54:48;;;;;;;8.15;1.48;;;;;;;22.18;89.43;99330.53;6249875;22;20548;-94
2022/10/18 05:57:16;;;;;;;6.90;1.35;;;;;;;21.98;90.77;99344.78;6249083;22;20007;-96
2022/10/18 05:59:47;;;;;;;14.27;1.52;;;;;;;22.87;88.65;99329.00;6276650;22;20012;-95
2022/10/18 06:02:13;;;;;;;14.57;1.75;;;;;;;22.42;90.17;99339.19;6243717;23;20020;-96
2022/10/18 06:04:39;;;;;;;34.95;2.85;;;;;;;21.79;91.55;99319.06;6245762;23;20434;-94
2022/10/18 06:07:09;;;;;;;10.25;1.20;;;;;;;22.34;90.43;99312.13;6232707;23;20415;-95
2022/10/18 06:09:36;;;;;;;12.07;1.20;;;;;;;21.52;94.62;99309.69;6244953;23;20012;-95
2022/10/18 06:12:03;;;;;;;21.48;1.77;;;;;;;21.63;95.30;99313.59;6220243;23;20069;-96
2022/10/18 06:14:42;;;;;;;10.50;1.30;;;;;;;22.62;91.24;99310.75;6246022;23;20004;-95
2022/10/18 06:17:07;;;;;;;15.43;1.70;;;;;;;23.21;90.46;99310.47;6245682;23;20097;-95
2022/10/18 06:19:32;;;;;;;17.05;1.90;;;;;;;;;;6244263;23;20765;-95
2022/10/18 06:21:58;;;;;;;10.23;1.80;;;;;;;22.29;93.63;99319.41;6245750;23;20099;-95
2022/10/18 06:24:23;;;;;;;11.07;1.90;;;;;;;21.55;97.45;99320.22;6237858;23;20276;-96
2022/10/18 06:26:49;;;;;;;10.27;1.90;;;;;;;21.54;97.87;99334.41;6244486;23;20072;-94
2022/10/18 06:29:15;;;;;;;13.02;2.35;;;;;;;22.11;96.36;99329.97;6244037;23;20008;-95
2022/10/18 06:31:40;;;;;;;19.08;3.05;;;;;;;21.48;95.35;99328.41;6244140;23;20039;-96
2022/10/18 06:34:06;;;;;;;13.98;3.05;;;;;;;21.73;98.45;99334.44;6244737;23;20415;-96
2022/10/18 06:36:31;;;;;;;10.88;2.10;;;;;;;21.65;99.53;99332.13;6246570;23;20024;-95
2022/10/18 06:38:58;;;;;;;11.02;2.20;;;;;;;22.89;93.27;99345.72;6242981;23;20481;-95
2022/10/18 06:41:24;;;;;;;11.98;2.40;;;;;;;22.09;93.08;99341.63;6245541;23;20023;-95
2022/10/18 06:43:51;;;;;;;14.73;2.13;;;;;;;23.65;89.85;99348.03;6243488;23;20418;-95
2022/10/18 06:46:17;;;;;;;13.70;2.08;;;;;;;22.29;90.70;99340.66;6245455;23;20802;-95
2022/10/18 06:48:45;;;;;;;10.07;2.03;;;;;;;22.22;91.78;99333.94;6245185;23;20012;-94
2022/10/18 06:51:11;;;;;;;13.30;2.38;;;;;;;21.30;95.19;99346.00;6244970;23;20046;-95
2022/10/18 06:53:38;;;;;;;11.30;2.03;;;;;;;21.60;94.93;99347.38;6245352;23;20004;-94
2022/10/18 06:56:11;;;;;;;12.45;1.70;;;;;;;21.41;95.78;99368.56;6244935;23;20106;-94
2022/10/18 06:58:37;;;;;;;13.10;1.70;;;;;;;21.89;94.67;99359.31;6248037;23;20069;-94
2022/10/18 07:01:12;;;;;;;11.32;1.80;;;;;;;21.27;95.44;99353.25;6258987;22;20031;-94
2022/10/18 07:03:39;;;;;;;15.40;1.98;;;;;;;21.13;98.50;99359.13;6249305;22;20004;-94
2022/10/18 07:06:07;;;;;;;10.13;1.50;;;;;;;21.87;93.47;99368.31;6246366;22;20050;-94
2022/10/18 07:08:33;;;;;;;11.27;1.67;;;;;;;21.41;95.19;99369.41;6249070;22;20007;-94
2022/10/18 07:11:05;;;;;;;12.52;1.63;;;;;;;21.49;96.26;99377.91;6249048;22;20467;-94
2022/10/18 07:13:32;;;;;;;14.33;1.73;;;;;;;22.94;90.58;99375.63;6246234;22;20059;-93
2022/10/18 07:16:11;;;;;;;14.15;1.63;;;;;;;21.63;92.31;99382.63;6245010;22;20152;-93
2022/10/18 07:18:40;;;;;;;12.30;1.85;;;;;;;21.87;91.91;99394.88;6242882;22;20006;-93
2022/10/18 07:21:13;;;;;;;10.55;1.40;;;;;;;22.20;92.74;99399.53;6242783;22;20022;-93
2022/10/18 07:23:41;;;;;;;11.73;1.38;;;;;;;22.14;92.81;99398.03;6245250;22;20247;-94
2022/10/18 07:26:12;;;;;;;6.85;1.20;;;;;;;23.13;89.07;99401.31;6244622;22;20008;-93
2022/10/18 07:28:37;;;;;;;12.88;1.88;;;;;;;23.68;87.03;99417.09;6243290;22;20401;-93
2022/10/18 07:31:06;;;;;;;11.25;1.90;;;;;;;24.17;83.20;99429.63;6241909;22;20008;-94
2022/10/18 07:33:33;;;;;;;12.43;1.35;;;;;;;24.09;82.98;99428.31;6271642;22;19999;-93
2022/10/18 07:36:03;;;;;;;11.30;1.60;;;;;;;23.23;86.59;99426.53;6240180;22;20505;-94
2022/10/18 07:38:29;;;;;;;8.73;1.23;;;;;;;22.24;90.12;99433.00;6241131;22;20070;-94
2022/10/18 07:40:57;;;;;;;9.13;1.45;;;;;;;22.98;87.44;99434.84;6240865;22;20429;-93
2022/10/18 07:43:23;;;;;;;20.83;2.00;;;;;;;22.77;87.87;99436.75;6240564;22;20015;-94
2022/10/18 07:45:53;;;;;;;8.35;1.80;;;;;;;22.27;91.18;99446.19;6241399;22;20020;-95
2022/10/18 07:48:18;;;;;;;10.35;1.58;;;;;;;22.31;91.35;99448.59;6243607;22;20007;-94
2022/10/18 07:50:44;;;;;;;7.32;1.48;;;;;;;24.15;85.88;99452.84;6241107;22;20444;-94
2022/10/18 07:53:09;;;;;;;12.30;1.55;;;;;;;22.67;92.21;99461.13;6242011;22;20477;-94
2022/10/18 07:55:35;;;;;;;10.98;1.50;;;;;;;24.10;87.15;99456.69;6242678;22;20012;-94
2022/10/18 07:58:00;;;;;;;11.40;1.60;;;;;;;24.02;86.99;99462.41;6245512;22;20010;-94
2022/10/18 08:00:25;;;;;;;8.18;1.95;;;;;;;24.07;86.86;99465.72;6242334;22;20572;-93
2022/10/18 08:02:58;;;;;;;9.52;1.55;;;;;;;23.87;88.61;99464.09;6244844;22;20034;-93
2022/10/18 08:05:26;;;;;;;8.77;1.42;;;;;;;24.45;86.76;99476.09;6245590;22;20031;-94
2022/10/18 08:07:57;;;;;;;11.60;1.65;;;;;;;24.16;89.15;99486.53;6244303;22;20456;-94
2022/10/18 08:10:25;;;;;;;12.43;1.70;;;;;;;24.27;88.20;99488.63;6246069;22;20015;-93
2022/10/18 08:12:53;;;;;;;10.13;1.67;;;;;;;24.65;85.13;99498.19;6245257;22;20430;-95
2022/10/18 08:15:20;;;;;;;10.63;1.38;;;;;;;25.18;84.34;99498.75;6246742;22;20018;-94
2022/10/18 08:17:46;;;;;;;13.60;1.90;;;;;;;25.78;82.04;99502.41;6247024;22;20035;-93
2022/10/18 08:20:11;;;;;;;10.82;1.50;;;;;;;27.68;75.44;99510.00;6245770;22;20008;-93
2022/10/18 08:22:37;;;;;;;9.20;1.70;;;;;;;27.04;76.13;99523.13;6244974;22;20003;-95
2022/10/18 08:25:02;;;;;;;9.30;2.08;;;;;;;25.94;79.53;99527.25;6244598;22;20006;-94
2022/10/18 08:27:28;;;;;;;10.82;1.35;;;;;;;27.97;73.40;99527.72;6245233;22;20019;-92
2022/10/18 08:29:53;;;;;;;8.38;1.60;;;;;;;27.53;72.96;99535.13;6243681;22;20425;-93
2022/10/18 08:32:19;;;;;;;14.20;1.45;;;;;;;27.19;74.29;99538.19;6242994;22;20010;-93
2022/10/18 08:34:44;;;;;;;7.35;1.42;;;;;;;26.32;76.61;99542.78;6272468;22;20779;-94
2022/10/18 08:37:09;;;;;;;13.80;1.85;;;;;;;27.54;72.37;99551.13;6244950;22;20011;-94
2022/10/18 08:39:35;;;;;;;7.63;1.38;;;;;;;28.65;69.04;99552.53;6244967;22;20023;-94
2022/10/18 08:42:22;;;;;;;11.82;1.77;;;;;;;26.79;76.73;99543.44;6243175;22;20062;-92
2022/10/18 08:44:49;;;;;;;7.38;1.35;;;;;;;26.92;75.09;99544.41;6242319;22;19999;-94
2022/10/18 08:47:21;;;;;;;12.10;1.48;;;;;;;26.60;79.29;99554.44;6243087;22;20090;-93
2022/10/18 08:50:05;;;;;;;7.90;1.42;;;;;;;28.13;71.58;99559.69;6241365;22;20106;-93
2022/10/18 08:52:36;;;;;;;9.30;1.42;;;;;;;26.97;75.77;99570.00;6242896;22;20061;-94
2022/10/18 08:55:08;;;;;;;9.52;1.50;;;;;;;26.90;76.97;99578.44;6242800;22;20011;-94
2022/10/18 08:57:34;;;;;;;8.18;1.70;;;;;;;26.81;76.69;99568.31;6244850;22;20011;-94
2022/10/18 09:00:04;;;;;;;13.30;1.85;;;;;;;26.54;77.69;99563.72;6244944;22;20035;-93
2022/10/18 09:02:51;;;;;;;12.40;2.10;;;;;;;27.72;76.39;99564.22;6273195;22;20015;-94
2022/10/18 09:05:35;;;;;;;8.32;1.48;;;;;;;27.68;72.84;99577.00;6247000;22;20008;-94
2022/10/18 09:08:40;;;;;;;12.70;1.88;;;;;;;26.42;77.62;99569.84;6248070;22;20019;-96
2022/10/18 09:11:25;;;;;;;10.68;1.88;;;;;;;26.20;78.06;99564.94;6247910;22;20163;-95
2022/10/18 09:14:13;;;;;;;9.25;1.70;;;;;;;26.58;78.28;99569.72;6248386;22;20027;-95
2022/10/18 09:16:55;;;;;;;10.38;2.05;;;;;;;25.04;83.85;99585.81;6217357;22;20091;-94
2022/10/18 09:19:53;;;;;;;10.93;1.80;;;;;;;26.68;80.81;99575.34;6276554;22;20086;-94
2022/10/18 09:22:40;;;;;;;8.50;2.03;;;;;;;28.01;74.45;99569.47;6248503;22;20011;-95
2022/10/18 09:25:15;;;;;;;12.35;2.10;;;;;;;27.65;76.19;99560.25;6246289;22;20026;-93
2022/10/18 09:27:49;;;;;;;9.30;1.75;;;;;;;27.37;73.54;99570.13;6245171;22;20016;-94
2022/10/18 09:30:33;;;;;;;10.07;2.38;;;;;;;28.19;72.21;99570.88;6245068;22;20023;-94
2022/10/18 09:33:13;;;;;;;12.90;2.95;;;;;;;31.26;63.30;99583.78;6250445;22;20008;-95
2022/10/18 09:35:51;;;;;;;10.63;2.50;;;;;;;31.30;57.65;99579.84;6250860;22;20003;-95
2022/10/18 09:38:20;;;;;;;10.02;2.53;;;;;;;30.95;59.81;99575.50;6253985;22;20026;-94
2022/10/18 09:41:15;;;;;;;12.52;2.97;;;;;;;30.85;61.13;99588.00;6257717;22;20096;-95
2022/10/18 09:44:02;;;;;;;12.40;2.80;;;;;;;28.31;66.28;99584.38;6253511;22;20022;-96
2022/10/18 09:46:36;;;;;;;12.55;2.80;;;;;;;31.26;62.89;99581.09;6253478;22;20215;-95
2022/10/18 09:49:09;;;;;;;9.70;2.28;;;;;;;31.92;58.17;99599.03;6253215;22;19996;-94
2022/10/18 09:51:41;;;;;;;12.10;2.03;;;;;;;29.47;65.64;99597.66;6252760;22;20076;-95
2022/10/18 09:54:25;;;;;;;12.40;2.27;;;;;;;33.85;53.19;99606.38;6256169;22;20003;-96
2022/10/18 09:56:54;;;;;;;10.35;1.70;;;;;;;32.28;54.77;99613.94;6253949;22;20011;-95
2022/10/18 09:59:40;;;;;;;11.60;2.10;;;;;;;32.13;54.93;99609.81;6253120;22;20039;-95
2022/10/18 10:02:08;;;;;;;10.48;1.92;;;;;;;31.93;55.52;99619.59;6254107;22;20019;-96
2022/10/18 10:04:33;;;;;;;9.98;1.90;;;;;;;33.41;52.54;99624.84;6255123;22;20453;-96
2022/10/18 10:07:00;;;;;;;11.07;1.58;;;;;;;32.06;54.35;99627.53;6247124;22;20091;-96
2022/10/18 10:09:30;;;;;;;8.38;1.77;;;;;;;31.66;55.76;99626.34;6247190;22;20015;-96
2022/10/18 10:11:57;;;;;;;10.27;2.15;;;;;;;31.46;55.04;99628.81;6251612;22;20069;-96
2022/10/18 10:14:29;;;;;;;11.48;1.88;;;;;;;33.07;52.69;99639.50;6252336;22;20322;-95
2022/10/18 10:17:02;;;;;;;11.43;2.10;;;;;;;32.40;53.75;99646.25;6254415;22;20030;-96
2022/10/18 10:19:56;;;;;;;11.90;1.90;;;;;;;34.06;50.34;99643.25;6248303;22;20015;-96
2022/10/18 10:22:37;;;;;;;10.00;2.42;;;;;;;29.82;55.97;99646.09;6246925;22;20029;-96
2022/10/18 10:25:06;;;;;;;15.25;2.60;;;;;;;29.35;58.73;99648.63;6247554;22;19999;-96
2022/10/18 10:27:46;;;;;;;12.23;2.40;;;;;;;29.48;58.21;99654.00;6249401;22;20081;-96
2022/10/18 10:30:20;;;;;;;15.05;2.13;;;;;;;29.17;63.43;99649.94;6248603;22;20012;-96
2022/10/18 10:32:50;;;;;;;8.80;1.45;;;;;;;27.15;64.53;99654.50;6249871;22;20007;-96
2022/10/18 10:35:22;;;;;;;8.02;1.80;;;;;;;27.59;64.50;99657.97;6250959;22;20008;-96
2022/10/18 10:37:52;;;;;;;10.15;1.73;;;;;;;28.15;65.26;99648.97;6248666;22;20003;-96
2022/10/18 10:40:26;;;;;;;11.68;1.67;;;;;;;29.12;59.49;99655.66;6247362;22;20002;-96
2022/10/18 10:43:31;;;;;;;10.48;1.60;;;;;;;30.53;57.84;99662.25;6249767;22;20059;-96
2022/10/18 10:46:19;;;;;;;8.43;1.90;;;;;;;31.66;54.22;99664.09;6250135;22;20053;-96
2022/10/18 10:48:58;;;;;;;15.57;3.60;;;;;;;30.12;59.84;99648.31;6248145;22;20004;-96
2022/10/18 10:51:42;;;;;;;18.45;3.63;;;;;;;29.97;59.42;99654.88;6249108;22;20022;-96
2022/10/18 10:54:20;;;;;;;7.60;1.20;;;;;;;27.73;62.41;99649.88;6250169;22;20019;-96
2022/10/18 10:56:51;;;;;;;9.10;1.63;;;;;;;28.22;63.79;99655.63;6249671;22;20004;-96
2022/10/18 10:59:19;;;;;;;7.38;1.23;;;;;;;27.09;64.61;99653.06;6249290;22;20004;-96
2022/10/18 11:01:49;;;;;;;9.52;1.77;;;;;;;27.12;66.32;99654.69;6243259;23;20091;-96
2022/10/18 11:04:41;;;;;;;7.90;1.90;;;;;;;26.79;72.03;99642.47;6245708;23;20007;-96
2022/10/18 11:07:24;;;;;;;10.95;1.60;;;;;;;28.89;61.56;99639.34;6237892;23;20016;-96
2022/10/18 11:09:50;;;;;;;6.43;1.42;;;;;;;28.42;62.21;99644.41;6246368;23;20058;-96
2022/10/18 11:12:19;;;;;;;14.63;1.80;;;;;;;27.46;65.98;99647.22;6245463;23;20008;-96
2022/10/18 11:15:04;;;;;;;9.93;1.65;;;;;;;26.50;69.09;99634.41;6248616;23;20068;-96
2022/10/18 11:17:39;;;;;;;11.23;1.70;;;;;;;26.40;68.25;99638.59;6260543;23;19992;-96
2022/10/18 11:20:43;;;;;;;9.45;1.67;;;;;;;27.50;70.59;99646.06;6259931;23;20000;-96
2022/10/18 11:23:12;;;;;;;12.07;2.00;;;;;;;27.08;70.50;99629.94;6148575;23;20040;-96
2022/10/18 11:25:37;;;;;;;9.52;1.80;;;;;;;26.35;68.65;99628.19;6157500;23;20017;-96
2022/10/18 11:28:20;;;;;;;10.57;1.90;;;;;;;27.76;66.64;99630.91;6160008;23;20668;-96
2022/10/18 11:31:12;;;;;;;8.82;2.13;;;;;;;26.37;71.39;99625.41;6160249;23;20076;-96
2022/10/18 11:34:12;;;;;;;11.80;1.90;;;;;;;27.57;67.83;99636.66;6159335;23;20084;-96
2022/10/18 11:37:09;;;;;;;11.25;1.80;;;;;;;26.32;69.89;99640.84;6183918;23;20009;-96
2022/10/18 11:40:06;;;;;;;9.55;2.33;;;;;;;27.03;72.12;99633.88;6159076;23;20017;-96
2022/10/18 11:42:54;;;;;;;11.60;1.90;;;;;;;26.65;71.66;99631.75;6043707;23;20011;-96
2022/10/18 11:45:37;;;;;;;11.40;2.50;;;;;;;28.15;70.32;99632.88;6068173;23;20089;-96